createdAt,value
2017-02-09T00:00:15.954Z,49.5
2017-02-09T00:01:26.559Z,49.5
2017-02-09T00:02:36.287Z,49.4
2017-02-09T00:03:46.016Z,49.5
2017-02-09T00:04:55.785Z,49.69
2017-02-09T00:06:05.066Z,49.4
2017-02-09T00:07:14.782Z,49.31
2017-02-09T00:08:25.385Z,49.31
2017-02-09T00:09:35.110Z,49.21
2017-02-09T00:10:45.328Z,49.31
2017-02-09T00:11:55.046Z,49.31
2017-02-09T00:13:04.770Z,49.4
2017-02-09T00:14:15.383Z,49.4
2017-02-09T00:15:25.115Z,48.93
2017-02-09T00:16:34.888Z,48.93
2017-02-09T00:17:45.487Z,48.93
2017-02-09T00:18:56.088Z,49.21
2017-02-09T00:20:06.252Z,49.5
2017-02-09T00:21:15.530Z,49.21
2017-02-09T00:22:24.967Z,49.31
2017-02-09T00:23:34.699Z,49.31
2017-02-09T00:24:45.746Z,49.21
2017-02-09T00:25:55.467Z,49.31
2017-02-09T00:27:04.758Z,49.21
2017-02-09T00:28:14.969Z,49.31
2017-02-09T00:29:25.147Z,49.5
2017-02-09T00:30:34.431Z,49.4
2017-02-09T00:31:43.719Z,49.6
2017-02-09T00:32:54.322Z,49.6
2017-02-09T00:34:04.103Z,49.79
2017-02-09T00:35:13.384Z,49.6
2017-02-09T00:36:23.990Z,49.69
2017-02-09T00:37:33.737Z,49.4
2017-02-09T00:38:43.907Z,49.31
2017-02-09T00:39:54.562Z,49.69
2017-02-09T00:41:04.294Z,49.69
2017-02-09T00:42:13.578Z,49.79
2017-02-09T00:43:23.729Z,50.07
2017-02-09T00:44:33.896Z,50.17
2017-02-09T00:45:43.679Z,49.88
2017-02-09T00:46:52.972Z,49.98
2017-02-09T00:48:02.697Z,49.88
2017-02-09T00:49:12.854Z,49.98
2017-02-09T00:50:22.583Z,49.69
2017-02-09T00:51:32.359Z,49.79
2017-02-09T00:52:42.512Z,49.6
2017-02-09T00:53:52.679Z,49.88
2017-02-09T00:55:02.410Z,49.88
2017-02-09T00:56:12.141Z,49.88
2017-02-09T00:57:21.472Z,49.98
2017-02-09T00:58:32.076Z,49.69
2017-02-09T00:59:42.253Z,49.88
2017-02-09T01:00:51.534Z,49.6
2017-02-09T01:02:01.693Z,50.07
2017-02-09T01:03:11.673Z,49.69
2017-02-09T01:04:21.398Z,49.5
2017-02-09T01:05:30.691Z,49.79
2017-02-09T01:06:39.976Z,49.79
2017-02-09T01:07:49.709Z,49.98
2017-02-09T01:09:00.514Z,49.6
2017-02-09T01:10:10.679Z,50.17
2017-02-09T01:11:20.413Z,49.79
2017-02-09T01:12:30.596Z,49.5
2017-02-09T01:13:40.963Z,49.79
2017-02-09T01:14:50.743Z,50.07
2017-02-09T01:16:00.907Z,49.98
2017-02-09T01:17:11.062Z,50.17
2017-02-09T01:18:21.227Z,50.07
2017-02-09T01:19:30.517Z,50.07
2017-02-09T01:20:40.282Z,49.6
2017-02-09T01:21:49.999Z,50.05
2017-02-09T01:22:59.728Z,50.15
2017-02-09T01:24:09.458Z,49.57
2017-02-09T01:25:18.741Z,49.66
2017-02-09T01:26:28.962Z,49.66
2017-02-09T01:27:39.582Z,49.66
2017-02-09T01:28:49.742Z,49.69
2017-02-09T01:30:00.351Z,49.57
2017-02-09T01:31:10.516Z,49.66
2017-02-09T01:32:20.722Z,49.95
2017-02-09T01:33:30.875Z,49.66
2017-02-09T01:34:41.040Z,50.05
2017-02-09T01:35:50.765Z,49.86
2017-02-09T01:37:00.491Z,49.66
2017-02-09T01:38:10.270Z,49.76
2017-02-09T01:39:21.753Z,49.66
2017-02-09T01:40:31.473Z,49.95
2017-02-09T01:41:41.199Z,49.57
2017-02-09T01:42:50.920Z,49.57
2017-02-09T01:44:00.701Z,50.05
2017-02-09T01:45:10.426Z,50.05
2017-02-09T01:46:20.588Z,49.86
2017-02-09T01:47:29.879Z,49.95
2017-02-09T01:48:40.046Z,49.95
2017-02-09T01:49:49.373Z,49.95
2017-02-09T01:50:59.100Z,49.95
2017-02-09T01:52:08.821Z,50.05
2017-02-09T01:53:18.979Z,49.86
2017-02-09T01:54:28.704Z,49.95
2017-02-09T01:55:39.457Z,49.95
2017-02-09T01:56:49.629Z,49.86
2017-02-09T01:58:00.221Z,49.48
2017-02-09T01:59:10.865Z,49.66
2017-02-09T02:00:20.148Z,49.76
2017-02-09T02:01:29.917Z,49.76
2017-02-09T02:02:40.080Z,50.05
2017-02-09T02:03:49.805Z,49.95
2017-02-09T02:04:59.964Z,49.48
2017-02-09T02:06:09.243Z,49.95
2017-02-09T02:07:19.017Z,49.86
2017-02-09T02:08:28.741Z,50.34
2017-02-09T02:09:38.907Z,50.05
2017-02-09T02:10:48.196Z,50.24
2017-02-09T02:11:58.349Z,49.86
2017-02-09T02:13:07.781Z,50.15
2017-02-09T02:14:17.063Z,50.43
2017-02-09T02:15:27.669Z,50.15
2017-02-09T02:16:37.826Z,50.52
2017-02-09T02:17:47.115Z,50.15
2017-02-09T02:18:57.526Z,50.52
2017-02-09T02:20:06.817Z,50.52
2017-02-09T02:21:16.103Z,50.24
2017-02-09T02:22:26.698Z,49.86
2017-02-09T02:23:36.857Z,50.43
2017-02-09T02:24:46.194Z,50.15
2017-02-09T02:25:55.922Z,50.05
2017-02-09T02:27:05.652Z,49.95
2017-02-09T02:28:15.814Z,50.05
2017-02-09T02:29:25.099Z,50.15
2017-02-09T02:30:35.312Z,50.05
2017-02-09T02:31:45.471Z,50.15
2017-02-09T02:32:56.074Z,49.86
2017-02-09T02:34:05.818Z,50.43
2017-02-09T02:35:15.544Z,50.05
2017-02-09T02:36:25.350Z,50.34
2017-02-09T02:37:34.638Z,49.66
2017-02-09T02:38:43.924Z,50.34
2017-02-09T02:39:53.644Z,49.76
2017-02-09T02:41:03.375Z,50.05
2017-02-09T02:42:12.706Z,50.05
2017-02-09T02:43:22.432Z,50.05
2017-02-09T02:44:32.162Z,50.05
2017-02-09T02:45:41.891Z,50.05
2017-02-09T02:46:51.618Z,50.05
2017-02-09T02:48:01.837Z,50.34
2017-02-09T02:49:11.563Z,50.43
2017-02-09T02:50:21.727Z,49.86
2017-02-09T02:51:31.048Z,49.84
2017-02-09T02:52:41.648Z,50.24
2017-02-09T02:53:51.419Z,50.34
2017-02-09T02:55:01.144Z,50.6
2017-02-09T02:56:10.426Z,50.5
2017-02-09T02:57:19.711Z,50.02
2017-02-09T02:58:29.880Z,50.12
2017-02-09T02:59:40.093Z,50.24
2017-02-09T03:00:49.408Z,50.21
2017-02-09T03:01:59.577Z,50.31
2017-02-09T03:03:10.185Z,50.12
2017-02-09T03:04:19.470Z,50.6
2017-02-09T03:05:29.243Z,50.41
2017-02-09T03:06:38.965Z,50.02
2017-02-09T03:07:49.129Z,50.31
2017-02-09T03:08:58.853Z,50.6
2017-02-09T03:10:09.011Z,50.5
2017-02-09T03:11:19.233Z,50.21
2017-02-09T03:12:28.962Z,50.21
2017-02-09T03:13:39.107Z,50.12
2017-02-09T03:14:48.388Z,50.31
2017-02-09T03:15:58.116Z,50.41
2017-02-09T03:17:08.778Z,50.41
2017-02-09T03:18:18.926Z,50.02
2017-02-09T03:19:29.529Z,50.02
2017-02-09T03:20:39.273Z,50.5
2017-02-09T03:21:49.003Z,50.41
2017-02-09T03:22:59.373Z,50.31
2017-02-09T03:24:08.658Z,50.21
2017-02-09T03:25:17.943Z,50.41
2017-02-09T03:26:27.671Z,50.31
2017-02-09T03:27:37.386Z,50.21
2017-02-09T03:28:46.726Z,50.41
2017-02-09T03:29:56.008Z,50.31
2017-02-09T03:31:06.601Z,50.31
2017-02-09T03:32:15.883Z,50.31
2017-02-09T03:33:25.170Z,50.21
2017-02-09T03:34:34.944Z,50.5
2017-02-09T03:35:44.658Z,50.41
2017-02-09T03:36:54.811Z,50.5
2017-02-09T03:38:04.540Z,50.12
2017-02-09T03:39:13.833Z,50.12
2017-02-09T03:40:23.364Z,50.12
2017-02-09T03:41:33.959Z,50.21
2017-02-09T03:42:43.679Z,50.5
2017-02-09T03:43:53.401Z,50.5
2017-02-09T03:45:03.567Z,50.6
2017-02-09T03:46:12.900Z,50.6
2017-02-09T03:47:22.181Z,50.5
2017-02-09T03:48:31.470Z,50.31
2017-02-09T03:49:41.625Z,50.6
2017-02-09T03:50:51.777Z,50.6
2017-02-09T03:52:01.990Z,50.7
2017-02-09T03:53:13.029Z,50.6
2017-02-09T03:54:22.752Z,50.6
2017-02-09T03:55:32.475Z,50.7
2017-02-09T03:56:42.643Z,50.79
2017-02-09T03:57:52.407Z,50.6
2017-02-09T03:59:02.573Z,50.41
2017-02-09T04:00:12.302Z,50.41
2017-02-09T04:01:22.914Z,50.7
2017-02-09T04:02:32.645Z,50.7
2017-02-09T04:03:42.850Z,50.79
2017-02-09T04:04:52.581Z,50.89
2017-02-09T04:06:02.736Z,50.79
2017-02-09T04:07:12.448Z,50.79
2017-02-09T04:08:23.050Z,50.79
2017-02-09T04:09:32.387Z,50.5
2017-02-09T04:10:42.549Z,50.5
2017-02-09T04:11:52.704Z,50.6
2017-02-09T04:13:03.303Z,50.41
2017-02-09T04:14:13.032Z,50.79
2017-02-09T04:15:22.814Z,50.98
2017-02-09T04:16:32.525Z,50.7
2017-02-09T04:17:43.111Z,50.5
2017-02-09T04:18:53.269Z,50.6
2017-02-09T04:20:02.557Z,50.6
2017-02-09T04:21:12.770Z,50.5
2017-02-09T04:22:23.813Z,50.41
2017-02-09T04:23:33.538Z,50.6
2017-02-09T04:24:43.267Z,50.6
2017-02-09T04:25:53.432Z,50.6
2017-02-09T04:27:03.213Z,50.41
2017-02-09T04:28:13.378Z,50.6
2017-02-09T04:29:23.539Z,50.6
2017-02-09T04:30:33.268Z,50.79
2017-02-09T04:31:43.438Z,50.98
2017-02-09T04:32:53.202Z,50.89
2017-02-09T04:34:02.926Z,50.7
2017-02-09T04:35:13.543Z,50.79
2017-02-09T04:36:23.715Z,50.6
2017-02-09T04:37:33.440Z,50.7
2017-02-09T04:38:43.217Z,50.6
2017-02-09T04:39:52.942Z,50.7
2017-02-09T04:41:02.676Z,50.7
2017-02-09T04:42:11.960Z,50.6
2017-02-09T04:43:21.690Z,50.79
2017-02-09T04:44:31.463Z,50.86
2017-02-09T04:45:41.626Z,50.38
2017-02-09T04:46:51.788Z,50.79
2017-02-09T04:48:01.939Z,50.5
2017-02-09T04:49:12.103Z,50.79
2017-02-09T04:50:21.435Z,50.98
2017-02-09T04:51:31.156Z,50.79
2017-02-09T04:52:41.762Z,50.7
2017-02-09T04:53:51.928Z,50.89
2017-02-09T04:55:01.642Z,50.67
2017-02-09T04:56:11.842Z,50.6
2017-02-09T04:57:22.454Z,50.57
2017-02-09T04:58:33.061Z,50.6
2017-02-09T04:59:43.223Z,50.7
2017-02-09T05:00:52.955Z,50.48
2017-02-09T05:02:03.171Z,50.7
2017-02-09T05:03:13.770Z,51.17
2017-02-09T05:04:23.498Z,51.17
2017-02-09T05:05:34.096Z,51.27
2017-02-09T05:06:43.818Z,51.34
2017-02-09T05:07:54.043Z,50.98
2017-02-09T05:09:03.768Z,50.86
2017-02-09T05:10:13.943Z,50.89
2017-02-09T05:11:24.115Z,50.7
2017-02-09T05:12:34.267Z,50.89
2017-02-09T05:13:44.491Z,50.6
2017-02-09T05:14:54.649Z,51.15
2017-02-09T05:16:03.941Z,51.17
2017-02-09T05:17:14.572Z,50.98
2017-02-09T05:18:24.293Z,51.17
2017-02-09T05:19:34.165Z,50.76
2017-02-09T05:20:43.892Z,51.07
2017-02-09T05:21:53.621Z,51.24
2017-02-09T05:23:03.348Z,51.07
2017-02-09T05:24:12.641Z,50.86
2017-02-09T05:25:22.416Z,50.6
2017-02-09T05:26:32.133Z,50.89
2017-02-09T05:27:41.857Z,50.89
2017-02-09T05:28:52.134Z,50.21
2017-02-09T05:30:04.676Z,50.31
2017-02-09T05:31:15.764Z,50
2017-02-09T05:32:27.566Z,49.74
2017-02-09T05:33:38.171Z,52.01
2017-02-09T05:34:47.893Z,54.43
2017-02-09T05:35:57.623Z,56.15
2017-02-09T05:37:07.396Z,57.77
2017-02-09T05:38:17.124Z,58.44
2017-02-09T05:39:26.854Z,58.73
2017-02-09T05:40:37.024Z,58.73
2017-02-09T05:41:47.200Z,59.3
2017-02-09T05:42:56.978Z,59.78
2017-02-09T05:44:06.269Z,59.59
2017-02-09T05:45:16.431Z,59.88
2017-02-09T05:46:27.041Z,60.16
2017-02-09T05:47:37.214Z,60.35
2017-02-09T05:48:46.985Z,60.16
2017-02-09T05:49:57.150Z,60.06
2017-02-09T05:51:07.315Z,60.35
2017-02-09T05:52:17.913Z,60.16
2017-02-09T05:53:28.510Z,59.97
2017-02-09T05:54:38.288Z,60.06
2017-02-09T05:55:48.015Z,59.78
2017-02-09T05:56:58.176Z,59.88
2017-02-09T05:58:08.332Z,60.16
2017-02-09T05:59:18.062Z,60.74
2017-02-09T06:00:27.835Z,60.74
2017-02-09T06:01:37.988Z,60.26
2017-02-09T06:02:48.181Z,59.69
2017-02-09T06:03:58.334Z,60.06
2017-02-09T06:05:08.056Z,60.06
2017-02-09T06:06:17.829Z,60.26
2017-02-09T06:07:27.562Z,59.97
2017-02-09T06:08:37.282Z,60.35
2017-02-09T06:09:47.005Z,59.78
2017-02-09T06:10:56.729Z,59.59
2017-02-09T06:12:06.666Z,59.11
2017-02-09T06:13:16.834Z,59.49
2017-02-09T06:14:26.997Z,58.73
2017-02-09T06:15:36.723Z,58.83
2017-02-09T06:16:46.451Z,58.83
2017-02-09T06:17:57.105Z,58.15
2017-02-09T06:19:06.822Z,58.44
2017-02-09T06:20:16.539Z,57.77
2017-02-09T06:21:26.263Z,57.68
2017-02-09T06:22:36.426Z,58.06
2017-02-09T06:23:47.513Z,57.01
2017-02-09T06:24:57.235Z,57.1
2017-02-09T06:26:06.949Z,57.01
2017-02-09T06:27:16.702Z,56.53
2017-02-09T06:28:26.440Z,57.1
2017-02-09T06:29:37.528Z,56.34
2017-02-09T06:30:48.141Z,56.34
2017-02-09T06:31:58.317Z,56.43
2017-02-09T06:33:07.600Z,55.96
2017-02-09T06:34:16.881Z,55.76
2017-02-09T06:35:27.532Z,55.67
2017-02-09T06:36:37.700Z,55.86
2017-02-09T06:37:47.429Z,55.38
2017-02-09T06:38:57.593Z,55.47
2017-02-09T06:40:07.317Z,55.19
2017-02-09T06:41:17.095Z,55.57
2017-02-09T06:42:26.815Z,55.19
2017-02-09T06:43:36.967Z,55
2017-02-09T06:44:46.700Z,55.1
2017-02-09T06:45:56.432Z,54.71
2017-02-09T06:47:05.766Z,54.52
2017-02-09T06:48:15.926Z,54.61
2017-02-09T06:49:25.655Z,54.52
2017-02-09T06:50:35.377Z,54.71
2017-02-09T06:51:44.663Z,54.71
2017-02-09T06:52:54.883Z,54.52
2017-02-09T06:54:05.037Z,54.8
2017-02-09T06:55:14.322Z,54.9
2017-02-09T06:56:23.609Z,54.8
2017-02-09T06:57:33.380Z,54.71
2017-02-09T06:58:43.153Z,54.9
2017-02-09T06:59:52.438Z,54.23
2017-02-09T07:01:01.731Z,54.23
2017-02-09T07:02:11.451Z,54.43
2017-02-09T07:03:21.177Z,54.23
2017-02-09T07:04:30.943Z,54.04
2017-02-09T07:05:41.112Z,54.33
2017-02-09T07:06:50.821Z,54.33
2017-02-09T07:08:00.546Z,54.23
2017-02-09T07:09:09.826Z,54.23
2017-02-09T07:10:19.258Z,54.43
2017-02-09T07:11:28.976Z,54.23
2017-02-09T07:12:39.138Z,53.94
2017-02-09T07:13:48.859Z,53.94
2017-02-09T07:14:58.587Z,54.04
2017-02-09T07:16:07.920Z,54.04
2017-02-09T07:17:17.637Z,53.75
2017-02-09T07:18:26.927Z,53.75
2017-02-09T07:19:36.204Z,53.37
2017-02-09T07:20:45.915Z,53.37
2017-02-09T07:21:55.690Z,53.47
2017-02-09T07:23:04.984Z,53.37
2017-02-09T07:24:14.269Z,53.08
2017-02-09T07:25:23.998Z,53.47
2017-02-09T07:26:33.279Z,53.08
2017-02-09T07:27:42.615Z,53.37
2017-02-09T07:28:52.775Z,53.18
2017-02-09T07:30:02.959Z,53.18
2017-02-09T07:31:12.690Z,53.08
2017-02-09T07:32:23.289Z,52.7
2017-02-09T07:33:33.064Z,52.89
2017-02-09T07:34:42.345Z,52.89
2017-02-09T07:35:52.498Z,52.89
2017-02-09T07:37:02.230Z,52.89
2017-02-09T07:38:11.523Z,52.99
2017-02-09T07:39:21.291Z,52.89
2017-02-09T07:40:30.573Z,52.7
2017-02-09T07:41:40.302Z,52.22
2017-02-09T07:42:50.901Z,52.42
2017-02-09T07:44:00.625Z,52.32
2017-02-09T07:45:10.826Z,52.32
2017-02-09T07:46:20.110Z,52.32
2017-02-09T07:47:29.387Z,52.32
2017-02-09T07:48:38.668Z,52.32
2017-02-09T07:49:47.942Z,52.32
2017-02-09T07:50:57.274Z,52.32
2017-02-09T07:52:07.863Z,51.93
2017-02-09T07:53:18.018Z,52.42
2017-02-09T07:54:27.739Z,52.51
2017-02-09T07:55:37.456Z,51.75
2017-02-09T07:56:47.229Z,51.56
2017-02-09T07:57:56.515Z,51.75
2017-02-09T07:59:06.674Z,51.75
2017-02-09T08:00:17.277Z,51.56
2017-02-09T08:01:27.006Z,51.46
2017-02-09T08:02:36.830Z,51.46
2017-02-09T08:03:46.992Z,51.36
2017-02-09T08:04:56.716Z,51.65
2017-02-09T08:06:07.326Z,51.36
2017-02-09T08:07:17.484Z,51.56
2017-02-09T08:08:26.912Z,51.46
2017-02-09T08:09:36.204Z,51.17
2017-02-09T08:10:46.375Z,51.07
2017-02-09T08:11:55.657Z,50.7
2017-02-09T08:13:05.386Z,50.89
2017-02-09T08:14:15.599Z,50.79
2017-02-09T08:15:26.208Z,50.89
2017-02-09T08:16:35.928Z,50.79
2017-02-09T08:17:45.649Z,50.6
2017-02-09T08:18:55.373Z,50.7
2017-02-09T08:20:04.709Z,50.7
2017-02-09T08:21:14.443Z,50.41
2017-02-09T08:22:24.171Z,50.79
2017-02-09T08:23:34.762Z,50.6
2017-02-09T08:24:44.051Z,50.7
2017-02-09T08:25:54.700Z,50.98
2017-02-09T08:27:04.430Z,50.6
2017-02-09T08:28:14.194Z,50.5
2017-02-09T08:29:24.344Z,50.12
2017-02-09T08:30:33.629Z,50.41
2017-02-09T08:31:43.840Z,50.41
2017-02-09T08:32:53.569Z,50.31
2017-02-09T08:34:02.857Z,50.41
2017-02-09T08:35:12.586Z,50.6
2017-02-09T08:36:21.866Z,49.64
2017-02-09T08:37:32.081Z,50.02
2017-02-09T08:38:41.807Z,50.41
2017-02-09T08:39:51.963Z,49.74
2017-02-09T08:41:01.243Z,49.45
2017-02-09T08:42:11.849Z,49.74
2017-02-09T08:43:21.630Z,49.64
2017-02-09T08:44:31.796Z,49.93
2017-02-09T08:45:41.523Z,49.84
2017-02-09T08:46:52.123Z,49.93
2017-02-09T08:48:01.845Z,49.93
2017-02-09T08:49:12.044Z,50.21
2017-02-09T08:50:21.761Z,49.45
2017-02-09T08:51:31.052Z,49.45
2017-02-09T08:52:41.214Z,49.45
2017-02-09T08:53:51.378Z,49.45
2017-02-09T08:55:01.592Z,49.64
2017-02-09T08:56:11.320Z,49.64
2017-02-09T08:57:20.608Z,49.07
2017-02-09T08:58:29.894Z,49.26
2017-02-09T08:59:40.077Z,49.26
2017-02-09T09:00:49.842Z,48.88
2017-02-09T09:01:59.579Z,48.78
2017-02-09T09:03:09.301Z,48.59
2017-02-09T09:04:18.591Z,48.97
2017-02-09T09:05:29.237Z,48.49
2017-02-09T09:06:39.456Z,48.78
2017-02-09T09:07:49.190Z,48.49
2017-02-09T09:08:58.919Z,48.78
2017-02-09T09:10:09.519Z,48.49
2017-02-09T09:11:19.685Z,48.21
2017-02-09T09:12:29.898Z,48.39
2017-02-09T09:13:39.178Z,48.3
2017-02-09T09:14:48.461Z,48.68
2017-02-09T09:15:57.746Z,48.39
2017-02-09T09:17:07.919Z,47.92
2017-02-09T09:18:18.122Z,48.21
2017-02-09T09:19:27.850Z,47.82
2017-02-09T09:20:38.021Z,48.02
2017-02-09T09:21:47.756Z,48.21
2017-02-09T09:22:57.477Z,48.02
2017-02-09T09:24:07.260Z,48.02
2017-02-09T09:25:17.864Z,48.21
2017-02-09T09:26:27.584Z,47.92
2017-02-09T09:27:37.748Z,48.02
2017-02-09T09:28:47.911Z,47.34
2017-02-09T09:29:58.130Z,47.73
2017-02-09T09:31:08.295Z,47.44
2017-02-09T09:32:18.011Z,47.53
2017-02-09T09:33:27.744Z,47.47
2017-02-09T09:34:37.908Z,47.44
2017-02-09T09:35:48.566Z,47.44
2017-02-09T09:36:58.743Z,47.53
2017-02-09T09:38:08.917Z,47.63
2017-02-09T09:39:18.627Z,47.73
2017-02-09T09:40:28.785Z,47.25
2017-02-09T09:41:39.002Z,47.34
2017-02-09T09:42:48.290Z,47.16
2017-02-09T09:43:58.007Z,47.34
2017-02-09T09:45:08.178Z,47.16
2017-02-09T09:46:18.339Z,46.77
2017-02-09T09:47:29.434Z,47.06
2017-02-09T09:48:39.598Z,47.06
2017-02-09T09:49:49.765Z,46.87
2017-02-09T09:50:59.486Z,46.87
2017-02-09T09:52:10.087Z,46.96
2017-02-09T09:53:20.300Z,47.16
2017-02-09T09:54:29.589Z,46.96
2017-02-09T09:55:38.871Z,47.34
2017-02-09T09:56:48.598Z,47.16
2017-02-09T09:57:58.763Z,47.34
2017-02-09T09:59:08.538Z,46.87
2017-02-09T10:00:18.707Z,46.87
2017-02-09T10:01:27.986Z,46.48
2017-02-09T10:02:39.031Z,46.58
2017-02-09T10:03:48.323Z,46.67
2017-02-09T10:04:58.526Z,46.67
2017-02-09T10:06:08.258Z,46.1
2017-02-09T10:07:17.990Z,46.01
2017-02-09T10:08:28.144Z,45.81
2017-02-09T10:09:38.749Z,45.74
2017-02-09T10:10:48.518Z,45.17
2017-02-09T10:11:57.799Z,45.36
2017-02-09T10:13:07.528Z,44.98
2017-02-09T10:14:16.813Z,44.69
2017-02-09T10:15:26.535Z,44.98
2017-02-09T10:16:36.304Z,45.17
2017-02-09T10:17:46.029Z,44.5
2017-02-09T10:18:55.763Z,43.83
2017-02-09T10:20:05.046Z,44.21
2017-02-09T10:21:14.767Z,44.4
2017-02-09T10:22:25.409Z,44.09
2017-02-09T10:23:34.698Z,43.9
2017-02-09T10:24:44.852Z,43.92
2017-02-09T10:25:54.587Z,43.52
2017-02-09T10:27:04.748Z,43.44
2017-02-09T10:28:15.404Z,43.63
2017-02-09T10:29:24.685Z,43.63
2017-02-09T10:30:35.279Z,43.14
2017-02-09T10:31:45.883Z,43.33
2017-02-09T10:32:55.616Z,43.23
2017-02-09T10:34:05.398Z,43.14
2017-02-09T10:35:15.559Z,43.14
2017-02-09T10:36:24.843Z,42.58
2017-02-09T10:37:35.003Z,42.66
2017-02-09T10:38:45.166Z,42.66
2017-02-09T10:39:55.375Z,42.76
2017-02-09T10:41:05.091Z,42.27
2017-02-09T10:42:14.834Z,42.37
2017-02-09T10:43:24.137Z,42.66
2017-02-09T10:44:35.223Z,42.37
2017-02-09T10:45:45.439Z,42.08
2017-02-09T10:46:55.164Z,41.99
2017-02-09T10:48:05.763Z,42.08
2017-02-09T10:49:15.485Z,41.7
2017-02-09T10:50:25.666Z,41.7
2017-02-09T10:51:35.429Z,41.32
2017-02-09T10:52:45.588Z,41.51
2017-02-09T10:53:55.307Z,41.13
2017-02-09T10:55:04.598Z,41.03
2017-02-09T10:56:14.766Z,40.95
2017-02-09T10:57:24.533Z,40.86
2017-02-09T10:58:33.813Z,40.95
2017-02-09T10:59:43.969Z,40.95
2017-02-09T11:00:54.568Z,40.95
2017-02-09T11:02:04.305Z,40.77
2017-02-09T11:03:13.739Z,40.86
2017-02-09T11:04:23.455Z,41.03
2017-02-09T11:05:33.184Z,40.48
2017-02-09T11:06:43.341Z,40.29
2017-02-09T11:07:52.627Z,40.29
2017-02-09T11:09:01.964Z,40.29
2017-02-09T11:10:11.248Z,40.09
2017-02-09T11:11:22.281Z,39.9
2017-02-09T11:12:32.437Z,39.72
2017-02-09T11:13:42.173Z,40
2017-02-09T11:14:51.514Z,39.81
2017-02-09T11:16:01.242Z,39.62
2017-02-09T11:17:11.394Z,39.81
2017-02-09T11:18:21.544Z,39.72
2017-02-09T11:19:31.259Z,39.72
2017-02-09T11:20:41.020Z,39.62
2017-02-09T11:21:50.756Z,39.72
2017-02-09T11:23:00.484Z,39.62
2017-02-09T11:24:10.202Z,39.72
2017-02-09T11:25:19.937Z,39.72
2017-02-09T11:26:29.702Z,39.81
2017-02-09T11:27:38.982Z,39.9
2017-02-09T11:28:48.711Z,39.72
2017-02-09T11:29:58.913Z,40.02
2017-02-09T11:31:09.089Z,39.83
2017-02-09T11:32:19.023Z,39.73
2017-02-09T11:33:29.623Z,39.64
2017-02-09T11:34:39.354Z,39.64
2017-02-09T11:35:49.519Z,39.64
2017-02-09T11:36:59.232Z,39.73
2017-02-09T11:38:09.004Z,39.64
2017-02-09T11:39:19.169Z,39.56
2017-02-09T11:40:28.904Z,39.75
2017-02-09T11:41:39.078Z,39.75
2017-02-09T11:42:48.800Z,39.65
2017-02-09T11:43:58.573Z,39.85
2017-02-09T11:45:08.308Z,39.75
2017-02-09T11:46:18.461Z,39.65
2017-02-09T11:47:28.192Z,40.14
2017-02-09T11:48:38.350Z,39.85
2017-02-09T11:49:49.001Z,39.75
2017-02-09T11:50:58.281Z,39.68
2017-02-09T11:52:08.443Z,39.77
2017-02-09T11:53:17.747Z,39.77
2017-02-09T11:54:27.508Z,39.5
2017-02-09T11:55:37.435Z,39.89
2017-02-09T11:56:47.599Z,39.89
2017-02-09T11:57:57.762Z,39.6
2017-02-09T11:59:07.483Z,39.31
2017-02-09T12:00:17.216Z,39.12
2017-02-09T12:01:26.993Z,39.22
2017-02-09T12:02:37.169Z,39.03
2017-02-09T12:03:46.457Z,40.08
2017-02-09T12:04:56.179Z,39.04
2017-02-09T12:06:05.913Z,40
2017-02-09T12:07:15.688Z,39.14
2017-02-09T12:08:25.419Z,39.43
2017-02-09T12:09:34.704Z,39.33
2017-02-09T12:10:44.870Z,39.04
2017-02-09T12:11:54.149Z,39.43
2017-02-09T12:13:04.363Z,39.33
2017-02-09T12:14:14.515Z,39.04
2017-02-09T12:15:25.127Z,39.23
2017-02-09T12:16:34.844Z,39.04
2017-02-09T12:17:44.580Z,39.33
2017-02-09T12:18:54.777Z,38.95
2017-02-09T12:20:04.069Z,38.76
2017-02-09T12:21:14.227Z,38.76
2017-02-09T12:22:24.393Z,38.56
2017-02-09T12:23:34.567Z,38.95
2017-02-09T12:24:44.344Z,38.95
2017-02-09T12:25:53.633Z,38.66
2017-02-09T12:27:02.909Z,38.76
2017-02-09T12:28:12.194Z,38.96
2017-02-09T12:29:21.480Z,38.87
2017-02-09T12:30:31.259Z,38.68
2017-02-09T12:31:40.990Z,39.06
2017-02-09T12:32:51.150Z,38.87
2017-02-09T12:34:01.327Z,39.16
2017-02-09T12:35:12.818Z,39.06
2017-02-09T12:36:22.602Z,38.96
2017-02-09T12:37:32.763Z,38.87
2017-02-09T12:38:42.484Z,38.49
2017-02-09T12:39:52.203Z,38.49
2017-02-09T12:41:02.352Z,38.49
2017-02-09T12:42:13.008Z,38.87
2017-02-09T12:43:22.726Z,38.49
2017-02-09T12:44:32.892Z,38.39
2017-02-09T12:45:43.051Z,38.2
2017-02-09T12:46:53.218Z,37.91
2017-02-09T12:48:03.435Z,37.82
2017-02-09T12:49:12.719Z,38.01
2017-02-09T12:50:22.460Z,38.1
2017-02-09T12:51:32.189Z,38.32
2017-02-09T12:52:41.476Z,37.53
2017-02-09T12:53:51.256Z,37.84
2017-02-09T12:55:00.989Z,37.45
2017-02-09T12:56:10.270Z,37.64
2017-02-09T12:57:20.876Z,37.45
2017-02-09T12:58:30.605Z,37.45
2017-02-09T12:59:40.383Z,37.45
2017-02-09T13:00:50.116Z,37.45
2017-02-09T13:01:59.401Z,37.26
2017-02-09T13:03:09.135Z,37.45
2017-02-09T13:04:18.424Z,37.35
2017-02-09T13:05:28.203Z,37.35
2017-02-09T13:06:37.925Z,37.16
2017-02-09T13:07:47.210Z,37.07
2017-02-09T13:08:56.938Z,37.07
2017-02-09T13:10:07.109Z,36.97
2017-02-09T13:11:17.766Z,36.97
2017-02-09T13:12:27.931Z,37.07
2017-02-09T13:13:38.098Z,37.45
2017-02-09T13:14:47.827Z,36.97
2017-02-09T13:15:57.115Z,36.97
2017-02-09T13:17:07.365Z,36.88
2017-02-09T13:18:17.097Z,36.88
2017-02-09T13:19:27.269Z,36.78
2017-02-09T13:20:37.868Z,36.88
2017-02-09T13:21:47.580Z,36.97
2017-02-09T13:22:57.797Z,37.16
2017-02-09T13:24:07.967Z,36.68
2017-02-09T13:25:18.129Z,36.78
2017-02-09T13:26:27.854Z,36.88
2017-02-09T13:27:37.579Z,36.88
2017-02-09T13:28:47.779Z,36.97
2017-02-09T13:29:57.505Z,37.16
2017-02-09T13:31:06.793Z,37.16
2017-02-09T13:32:16.527Z,37.07
2017-02-09T13:33:25.809Z,37.26
2017-02-09T13:34:35.600Z,37.07
2017-02-09T13:35:45.757Z,37.05
2017-02-09T13:36:55.480Z,37.07
2017-02-09T13:38:04.760Z,37.05
2017-02-09T13:39:14.490Z,36.95
2017-02-09T13:40:24.252Z,37.34
2017-02-09T13:41:34.429Z,37.05
2017-02-09T13:42:44.157Z,37.05
2017-02-09T13:43:53.883Z,37.05
2017-02-09T13:45:03.601Z,37.05
2017-02-09T13:46:14.254Z,37.15
2017-02-09T13:47:23.540Z,37.34
2017-02-09T13:48:33.259Z,37.43
2017-02-09T13:49:42.983Z,37.43
2017-02-09T13:50:52.705Z,37.15
2017-02-09T13:52:03.951Z,37.24
2017-02-09T13:53:13.675Z,37.53
2017-02-09T13:54:23.406Z,37.43
2017-02-09T13:55:33.131Z,37.43
2017-02-09T13:56:42.415Z,37.53
2017-02-09T13:57:51.757Z,37.43
2017-02-09T13:59:01.921Z,37.43
2017-02-09T14:00:12.090Z,37.62
2017-02-09T14:01:22.701Z,37.72
2017-02-09T14:02:32.435Z,37.62
2017-02-09T14:03:43.087Z,37.24
2017-02-09T14:04:52.817Z,37.43
2017-02-09T14:06:02.982Z,37.43
2017-02-09T14:07:13.581Z,37.53
2017-02-09T14:08:24.184Z,37.53
2017-02-09T14:09:33.966Z,37.32
2017-02-09T14:10:43.694Z,37.6
2017-02-09T14:11:52.984Z,38.09
2017-02-09T14:13:03.148Z,38.28
2017-02-09T14:14:12.446Z,38.2
2017-02-09T14:15:21.786Z,37.99
2017-02-09T14:16:32.393Z,37.99
2017-02-09T14:17:42.994Z,37.89
2017-02-09T14:18:52.283Z,37.8
2017-02-09T14:20:02.445Z,37.8
2017-02-09T14:21:12.662Z,37.89
2017-02-09T14:22:22.826Z,37.99
2017-02-09T14:23:32.547Z,38.18
2017-02-09T14:24:42.272Z,38.37
2017-02-09T14:25:52.004Z,38.18
2017-02-09T14:27:02.207Z,38.47
2017-02-09T14:28:13.247Z,38.76
2017-02-09T14:29:22.965Z,38.95
2017-02-09T14:30:33.119Z,38.95
2017-02-09T14:31:43.284Z,38.66
2017-02-09T14:32:53.501Z,38.66
2017-02-09T14:34:02.793Z,38.66
2017-02-09T14:35:12.954Z,38.56
2017-02-09T14:36:22.236Z,38.45
2017-02-09T14:37:32.393Z,38.26
2017-02-09T14:38:41.727Z,38.26
2017-02-09T14:39:51.892Z,38.26
2017-02-09T14:41:02.057Z,38.93
2017-02-09T14:42:11.790Z,38.83
2017-02-09T14:43:21.084Z,38.54
2017-02-09T14:44:31.733Z,38.74
2017-02-09T14:45:41.022Z,38.83
2017-02-09T14:46:50.342Z,38.83
2017-02-09T14:48:00.500Z,38.83
2017-02-09T14:49:10.237Z,38.54
2017-02-09T14:50:19.582Z,38.64
2017-02-09T14:51:29.318Z,38.83
2017-02-09T14:52:39.483Z,39.22
2017-02-09T14:53:50.524Z,39.2
2017-02-09T14:55:00.692Z,38.74
2017-02-09T14:56:10.468Z,38.72
2017-02-09T14:57:20.195Z,38.93
2017-02-09T14:58:30.366Z,38.72
2017-02-09T14:59:40.095Z,38.72
2017-02-09T15:00:49.391Z,39.1
2017-02-09T15:01:59.614Z,38.91
2017-02-09T15:03:10.650Z,39.01
2017-02-09T15:04:19.944Z,39.29